createdAt,value
2023-10-25T00:00:21.511Z,7.40
2023-10-25T00:01:18.331Z,7.13
2023-10-25T00:02:15.078Z,7.43
2023-10-25T00:03:13.807Z,7.75
2023-10-25T00:04:11.403Z,7.55
2023-10-25T00:05:08.864Z,6.82
2023-10-25T00:06:05.690Z,7.15
2023-10-25T00:07:02.483Z,6.30
2023-10-25T00:07:59.357Z,7.13
2023-10-25T00:08:55.983Z,7.00
2023-10-25T00:09:52.755Z,7.57
2023-10-25T00:10:49.476Z,7.70
2023-10-25T00:11:46.115Z,6.97
2023-10-25T00:12:42.788Z,7.07
2023-10-25T00:13:39.531Z,7.00
2023-10-25T00:14:36.853Z,7.18
2023-10-25T00:15:33.539Z,7.03
2023-10-25T00:16:30.339Z,7.45
2023-10-25T00:17:27.114Z,6.90
2023-10-25T00:18:25.507Z,7.38
2023-10-25T00:19:22.166Z,7.18
2023-10-25T00:20:19.402Z,7.85
2023-10-25T00:21:16.083Z,6.93
2023-10-25T00:22:13.337Z,6.63
2023-10-25T00:23:10.061Z,6.70
2023-10-25T00:24:07.191Z,8.00
2023-10-25T00:25:04.141Z,7.72
2023-10-25T00:26:00.842Z,7.28
2023-10-25T00:26:57.595Z,6.82
2023-10-25T00:27:54.335Z,6.68
2023-10-25T00:28:51.181Z,7.13
2023-10-25T00:29:47.898Z,7.65
2023-10-25T00:30:48.389Z,6.43
2023-10-25T00:31:45.352Z,7.10
2023-10-25T00:32:44.072Z,6.65
2023-10-25T00:33:40.977Z,6.90
2023-10-25T00:34:37.725Z,7.28
2023-10-25T00:35:34.578Z,7.32
2023-10-25T00:36:31.202Z,7.35
2023-10-25T00:37:27.962Z,7.25
2023-10-25T00:38:24.752Z,6.07
2023-10-25T00:39:21.409Z,7.85
2023-10-25T00:40:18.119Z,6.80
2023-10-25T00:41:14.800Z,7.05
2023-10-25T00:42:11.455Z,7.57
2023-10-25T00:43:20.608Z,7.35
2023-10-25T00:44:17.292Z,7.03
2023-10-25T00:45:14.753Z,6.38
2023-10-25T00:46:16.352Z,6.53
2023-10-25T00:47:13.619Z,7.60
2023-10-25T00:48:10.481Z,7.00
2023-10-25T00:49:07.828Z,6.18
2023-10-25T00:50:05.117Z,6.68
2023-10-25T00:51:02.227Z,6.68
2023-10-25T00:51:59.576Z,6.75
2023-10-25T00:52:56.437Z,6.97
2023-10-25T00:53:55.568Z,6.75
2023-10-25T00:54:53.258Z,6.68
2023-10-25T00:55:51.610Z,6.30
2023-10-25T00:56:50.499Z,7.05
2023-10-25T00:57:47.252Z,7.15
2023-10-25T00:58:46.457Z,6.78
2023-10-25T00:59:43.735Z,7.40
2023-10-25T01:00:43.907Z,6.53
2023-10-25T01:01:42.644Z,6.82
2023-10-25T01:02:39.447Z,7.57
2023-10-25T01:03:37.110Z,6.28
2023-10-25T01:04:34.674Z,5.72
2023-10-25T01:05:31.553Z,7.07
2023-10-25T01:06:28.304Z,7.07
2023-10-25T01:07:25.030Z,6.78
2023-10-25T01:08:22.870Z,7.68
2023-10-25T01:09:19.580Z,6.35
2023-10-25T01:10:16.272Z,6.55
2023-10-25T01:11:13.305Z,7.15
2023-10-25T01:12:10.919Z,6.25
2023-10-25T01:13:07.953Z,6.45
2023-10-25T01:14:06.022Z,6.05
2023-10-25T01:15:02.913Z,6.00
2023-10-25T01:15:59.856Z,6.18
2023-10-25T01:16:56.766Z,6.30
2023-10-25T01:17:53.570Z,6.32
2023-10-25T01:18:50.375Z,6.72
2023-10-25T01:19:47.006Z,5.68
2023-10-25T01:20:46.708Z,6.15
2023-10-25T01:21:43.886Z,6.07
2023-10-25T01:22:40.732Z,6.03
2023-10-25T01:23:37.419Z,6.72
2023-10-25T01:24:34.132Z,6.35
2023-10-25T01:25:30.778Z,6.30
2023-10-25T01:26:27.464Z,5.85
2023-10-25T01:27:24.263Z,6.88
2023-10-25T01:28:20.967Z,6.30
2023-10-25T01:29:17.646Z,6.85
2023-10-25T01:30:14.418Z,6.10
2023-10-25T01:31:11.126Z,7.30
2023-10-25T01:32:08.264Z,6.40
2023-10-25T01:33:05.133Z,7.20
2023-10-25T01:34:01.953Z,5.90
2023-10-25T01:34:58.693Z,6.15
2023-10-25T01:35:55.330Z,6.45
2023-10-25T01:36:52.015Z,6.63
2023-10-25T01:37:48.995Z,6.43
2023-10-25T01:38:45.827Z,6.75
2023-10-25T01:39:42.756Z,6.55
2023-10-25T01:40:39.959Z,6.65
2023-10-25T01:41:36.639Z,7.10
2023-10-25T01:42:33.327Z,6.45
2023-10-25T01:43:30.191Z,6.95
2023-10-25T01:44:26.850Z,6.07
2023-10-25T01:45:24.518Z,6.70
2023-10-25T01:46:21.312Z,6.68
2023-10-25T01:47:18.085Z,6.88
2023-10-25T01:48:14.781Z,6.13
2023-10-25T01:49:11.533Z,6.63
2023-10-25T01:50:09.270Z,6.25
2023-10-25T01:51:09.916Z,6.22
2023-10-25T01:52:06.727Z,6.63
2023-10-25T01:53:04.563Z,6.45
2023-10-25T01:54:01.208Z,6.50
2023-10-25T01:54:57.972Z,6.10
2023-10-25T01:55:54.789Z,6.38
2023-10-25T01:56:51.544Z,6.60
2023-10-25T01:57:48.291Z,6.90
2023-10-25T01:58:45.104Z,6.57
2023-10-25T01:59:42.149Z,6.57
2023-10-25T02:00:41.133Z,6.45
2023-10-25T02:01:37.892Z,6.57
2023-10-25T02:02:35.135Z,6.13
2023-10-25T02:03:32.076Z,6.05
2023-10-25T02:04:29.058Z,6.45
2023-10-25T02:05:26.194Z,5.88
2023-10-25T02:06:23.000Z,7.13
2023-10-25T02:07:19.825Z,6.78
2023-10-25T02:08:17.831Z,7.00
2023-10-25T02:09:14.531Z,6.07
2023-10-25T02:10:11.434Z,6.35
2023-10-25T02:11:08.748Z,6.63
2023-10-25T02:12:05.817Z,6.57
2023-10-25T02:13:02.529Z,6.63
2023-10-25T02:13:59.381Z,6.15
2023-10-25T02:14:56.154Z,6.40
2023-10-25T02:15:52.862Z,6.03
2023-10-25T02:16:50.494Z,6.78
2023-10-25T02:17:47.321Z,7.10
2023-10-25T02:18:44.411Z,5.95
2023-10-25T02:19:42.740Z,6.38
2023-10-25T02:20:42.078Z,6.25
2023-10-25T02:21:39.027Z,6.70
2023-10-25T02:22:35.713Z,6.25
2023-10-25T02:23:32.425Z,6.63
2023-10-25T02:24:29.144Z,5.63
2023-10-25T02:25:25.870Z,6.05
2023-10-25T02:26:22.695Z,6.43
2023-10-25T02:27:19.433Z,6.47
2023-10-25T02:28:16.207Z,6.35
2023-10-25T02:29:13.127Z,6.82
2023-10-25T02:30:10.212Z,5.68
2023-10-25T02:31:07.094Z,7.13
2023-10-25T02:32:05.379Z,6.80
2023-10-25T02:33:02.102Z,6.45
2023-10-25T02:33:58.874Z,6.03
2023-10-25T02:34:55.603Z,6.50
2023-10-25T02:35:53.896Z,6.18
2023-10-25T02:36:50.616Z,6.43
2023-10-25T02:37:47.348Z,5.82
2023-10-25T02:38:44.010Z,6.00
2023-10-25T02:39:44.306Z,6.00
2023-10-25T02:40:41.213Z,5.70
2023-10-25T02:41:38.889Z,6.47
2023-10-25T02:42:36.582Z,6.35
2023-10-25T02:43:34.048Z,6.45
2023-10-25T02:44:30.746Z,5.95
2023-10-25T02:45:27.431Z,6.75
2023-10-25T02:46:24.728Z,6.40
2023-10-25T02:47:21.627Z,6.47
2023-10-25T02:48:18.326Z,6.40
2023-10-25T02:49:15.024Z,6.53
2023-10-25T02:50:11.729Z,5.72
2023-10-25T02:51:08.544Z,5.97
2023-10-25T02:52:05.370Z,6.53
2023-10-25T02:53:02.027Z,6.35
2023-10-25T02:53:58.676Z,6.18
2023-10-25T02:54:56.568Z,6.70
2023-10-25T02:56:03.252Z,5.90
2023-10-25T02:56:59.925Z,6.68
2023-10-25T02:57:56.741Z,7.05
2023-10-25T02:58:53.464Z,5.97
2023-10-25T02:59:52.859Z,6.50
2023-10-25T03:00:49.627Z,6.18
2023-10-25T03:01:46.536Z,6.30
2023-10-25T03:02:43.452Z,6.45
2023-10-25T03:03:40.154Z,6.75
2023-10-25T03:04:36.836Z,6.78
2023-10-25T03:05:33.580Z,6.63
2023-10-25T03:06:30.257Z,6.60
2023-10-25T03:07:26.955Z,6.60
2023-10-25T03:08:24.100Z,5.93
2023-10-25T03:09:20.807Z,7.20
2023-10-25T03:10:20.221Z,6.82
2023-10-25T03:11:17.103Z,6.80
2023-10-25T03:12:13.879Z,6.30
2023-10-25T03:13:10.698Z,7.00
2023-10-25T03:14:07.623Z,6.40
2023-10-25T03:15:04.641Z,6.85
2023-10-25T03:16:01.491Z,6.25
2023-10-25T03:16:58.375Z,6.80
2023-10-25T03:17:55.882Z,6.57
2023-10-25T03:18:52.749Z,6.43
2023-10-25T03:19:49.429Z,6.55
2023-10-25T03:20:46.079Z,6.55
2023-10-25T03:21:43.059Z,6.38
2023-10-25T03:22:39.834Z,6.85
2023-10-25T03:23:37.237Z,6.78
2023-10-25T03:24:34.423Z,6.13
2023-10-25T03:25:31.157Z,6.72
2023-10-25T03:26:27.845Z,6.22
2023-10-25T03:27:24.576Z,7.00
2023-10-25T03:28:21.304Z,6.78
2023-10-25T03:29:17.987Z,6.78
2023-10-25T03:30:14.786Z,6.70
2023-10-25T03:31:11.832Z,6.00
2023-10-25T03:32:08.740Z,7.30
2023-10-25T03:33:05.564Z,6.38
2023-10-25T03:34:02.354Z,7.65
2023-10-25T03:34:59.152Z,6.25
2023-10-25T03:35:56.292Z,6.72
2023-10-25T03:36:53.030Z,6.43
2023-10-25T03:37:49.810Z,6.93
2023-10-25T03:38:46.524Z,7.22
2023-10-25T03:39:43.589Z,6.30
2023-10-25T03:40:40.581Z,7.15
2023-10-25T03:41:37.320Z,6.75
2023-10-25T03:42:34.138Z,6.20
2023-10-25T03:43:32.567Z,6.97
2023-10-25T03:44:29.289Z,6.32
2023-10-25T03:45:26.115Z,6.22
2023-10-25T03:46:22.839Z,5.85
2023-10-25T03:47:19.607Z,6.28
2023-10-25T03:48:16.271Z,6.85
2023-10-25T03:49:13.299Z,6.80
2023-10-25T03:50:10.149Z,6.65
2023-10-25T03:51:07.806Z,6.88
2023-10-25T03:52:04.999Z,6.50
2023-10-25T03:53:01.734Z,7.18
2023-10-25T03:53:58.686Z,6.80
2023-10-25T03:54:55.456Z,7.45
2023-10-25T03:55:58.535Z,7.03
2023-10-25T03:56:55.198Z,6.57
2023-10-25T03:57:51.918Z,6.53
2023-10-25T03:58:48.563Z,7.20
2023-10-25T03:59:45.322Z,6.35
2023-10-25T04:00:42.070Z,6.03
2023-10-25T04:01:42.474Z,6.40
2023-10-25T04:02:39.324Z,6.78
2023-10-25T04:03:36.576Z,6.28
2023-10-25T04:04:33.627Z,6.65
2023-10-25T04:05:30.518Z,5.60
2023-10-25T04:06:27.202Z,6.47
2023-10-25T04:07:23.960Z,7.22
2023-10-25T04:08:20.841Z,6.70
2023-10-25T04:09:17.783Z,6.95
2023-10-25T04:10:14.741Z,7.18
2023-10-25T04:11:11.453Z,7.00
2023-10-25T04:12:13.374Z,6.75
2023-10-25T04:13:11.042Z,6.80
2023-10-25T04:14:07.704Z,6.80
2023-10-25T04:15:04.822Z,6.22
2023-10-25T04:16:03.754Z,7.22
2023-10-25T04:17:00.494Z,7.90
2023-10-25T04:17:57.352Z,6.82
2023-10-25T04:18:54.177Z,7.78
2023-10-25T04:19:51.454Z,7.95
2023-10-25T04:20:48.474Z,7.63
2023-10-25T04:21:45.277Z,8.40
2023-10-25T04:22:42.075Z,7.43
2023-10-25T04:23:41.989Z,6.80
2023-10-25T04:24:38.663Z,6.50
2023-10-25T04:25:35.461Z,7.22
2023-10-25T04:26:32.189Z,6.53
2023-10-25T04:27:28.869Z,7.05
2023-10-25T04:28:25.644Z,6.60
2023-10-25T04:29:22.396Z,6.60
2023-10-25T04:30:19.099Z,6.43
2023-10-25T04:31:16.336Z,6.53
2023-10-25T04:32:13.047Z,7.05
2023-10-25T04:33:09.816Z,6.75
2023-10-25T04:34:06.505Z,6.40
2023-10-25T04:35:03.391Z,6.35
2023-10-25T04:36:00.347Z,6.32
2023-10-25T04:36:57.166Z,6.20
2023-10-25T04:37:55.995Z,7.07
2023-10-25T04:38:52.670Z,6.50
2023-10-25T04:39:52.500Z,6.30
2023-10-25T04:40:49.233Z,6.38
2023-10-25T04:41:45.942Z,6.47
2023-10-25T04:42:42.724Z,6.38
2023-10-25T04:43:39.400Z,6.57
2023-10-25T04:44:36.166Z,7.50
2023-10-25T04:45:35.938Z,6.50
2023-10-25T04:46:32.807Z,6.50
2023-10-25T04:47:29.614Z,6.47
2023-10-25T04:48:26.849Z,6.57
2023-10-25T04:49:23.645Z,6.28
2023-10-25T04:50:21.700Z,6.00
2023-10-25T04:51:18.373Z,6.90
2023-10-25T04:52:15.095Z,6.85
2023-10-25T04:53:12.050Z,6.63
2023-10-25T04:54:08.730Z,6.75
2023-10-25T04:55:06.096Z,6.40
2023-10-25T04:56:02.986Z,7.38
2023-10-25T04:56:59.749Z,6.10
2023-10-25T04:57:57.788Z,7.15
2023-10-25T04:58:54.651Z,6.97
2023-10-25T04:59:51.910Z,6.15
2023-10-25T05:00:48.779Z,6.25
2023-10-25T05:01:45.681Z,6.47
2023-10-25T05:02:42.447Z,6.55
2023-10-25T05:03:39.288Z,7.13
2023-10-25T05:04:36.040Z,6.72
2023-10-25T05:05:34.055Z,7.40
2023-10-25T05:06:31.026Z,6.25
2023-10-25T05:07:27.934Z,6.30
2023-10-25T05:08:24.844Z,6.93
2023-10-25T05:09:21.761Z,7.68
2023-10-25T05:10:19.142Z,6.80
2023-10-25T05:11:17.340Z,6.43
2023-10-25T05:12:18.972Z,6.78
2023-10-25T05:13:16.920Z,6.50
2023-10-25T05:14:13.967Z,7.00
2023-10-25T05:15:12.255Z,6.70
2023-10-25T05:16:09.666Z,7.20
2023-10-25T05:17:08.252Z,6.55
2023-10-25T05:18:05.606Z,6.45
2023-10-25T05:19:02.740Z,6.45
2023-10-25T05:19:59.638Z,6.53
2023-10-25T05:21:01.735Z,6.82
2023-10-25T05:22:00.877Z,6.20
2023-10-25T05:23:01.226Z,6.75
2023-10-25T05:23:58.334Z,6.53
2023-10-25T05:24:55.905Z,6.60
2023-10-25T05:25:52.818Z,6.85
2023-10-25T05:26:49.925Z,5.78
2023-10-25T05:27:47.079Z,6.68
2023-10-25T05:28:43.963Z,6.45
2023-10-25T05:29:41.413Z,6.68
2023-10-25T05:30:38.524Z,7.70
2023-10-25T05:31:36.358Z,6.72
2023-10-25T05:32:35.598Z,6.82
2023-10-25T05:33:33.454Z,6.60
2023-10-25T05:34:30.858Z,6.82
2023-10-25T05:35:27.988Z,7.10
2023-10-25T05:36:25.059Z,6.30
2023-10-25T05:37:22.050Z,5.88
2023-10-25T05:38:19.092Z,6.68
2023-10-25T05:39:16.147Z,7.93
2023-10-25T05:40:13.641Z,6.30
2023-10-25T05:41:15.889Z,6.80
2023-10-25T05:42:22.530Z,7.60
2023-10-25T05:43:28.904Z,6.32
2023-10-25T05:44:25.880Z,7.35
2023-10-25T05:45:22.561Z,6.43
2023-10-25T05:46:19.334Z,7.43
2023-10-25T05:47:16.190Z,7.22
2023-10-25T05:48:16.602Z,6.75
2023-10-25T05:49:13.789Z,6.47
2023-10-25T05:50:14.026Z,6.15
2023-10-25T05:51:10.982Z,6.97
2023-10-25T05:52:09.301Z,7.03
2023-10-25T05:53:06.262Z,6.65
2023-10-25T05:58:34.361Z,6.72
2023-10-25T05:59:31.758Z,5.88
2023-10-25T06:00:28.738Z,6.68
2023-10-25T06:01:51.651Z,6.63
2023-10-25T06:02:51.066Z,6.85
2023-10-25T06:03:48.412Z,6.72
2023-10-25T06:04:45.756Z,6.80
2023-10-25T06:05:43.948Z,7.72
2023-10-25T06:06:43.552Z,6.63
2023-10-25T06:07:40.909Z,7.25
2023-10-25T06:08:38.034Z,7.68
2023-10-25T06:09:35.746Z,6.93
2023-10-25T06:10:32.845Z,6.85
2023-10-25T06:11:29.958Z,6.70
2023-10-25T06:12:27.058Z,7.82
2023-10-25T06:13:24.057Z,7.18
2023-10-25T06:14:21.146Z,6.88
2023-10-25T06:15:18.197Z,7.80
2023-10-25T06:16:15.177Z,7.03
2023-10-25T06:17:12.179Z,6.57
2023-10-25T06:18:10.500Z,6.70
2023-10-25T06:19:07.656Z,6.47
2023-10-25T06:20:05.652Z,6.78
2023-10-25T06:21:02.381Z,6.75
2023-10-25T06:21:59.181Z,6.68
2023-10-25T06:22:57.789Z,6.35
2023-10-25T06:23:54.873Z,7.15
2023-10-25T06:24:51.655Z,7.13
2023-10-25T06:25:48.350Z,6.57
2023-10-25T06:26:45.250Z,6.78
2023-10-25T06:27:42.092Z,7.47
2023-10-25T06:28:38.768Z,6.95
2023-10-25T06:29:35.612Z,6.40
2023-10-25T06:30:34.054Z,6.25
2023-10-25T06:31:31.004Z,6.85
2023-10-25T06:32:28.013Z,6.88
2023-10-25T06:33:26.254Z,6.93
2023-10-25T06:34:23.024Z,7.95
2023-10-25T06:35:19.837Z,6.82
2023-10-25T06:36:17.590Z,7.40
2023-10-25T06:37:14.572Z,7.22
2023-10-25T06:38:11.590Z,7.38
2023-10-25T06:39:08.898Z,6.80
2023-10-25T06:40:06.656Z,7.25
2023-10-25T06:41:04.217Z,6.85
2023-10-25T06:42:01.148Z,7.00
2023-10-25T06:42:58.130Z,6.72
2023-10-25T06:43:55.032Z,7.05
2023-10-25T06:44:52.329Z,6.63
2023-10-25T06:45:49.654Z,7.07
2023-10-25T06:46:46.816Z,6.90
2023-10-25T06:47:44.136Z,7.05
2023-10-25T06:48:41.344Z,7.47
2023-10-25T06:49:38.205Z,8.10
2023-10-25T06:50:35.370Z,6.88
2023-10-25T06:51:32.309Z,7.53
2023-10-25T06:52:29.215Z,7.82
2023-10-25T06:53:26.188Z,7.43
2023-10-25T06:54:23.095Z,7.38
2023-10-25T06:55:20.143Z,7.72
2023-10-25T06:56:17.106Z,7.00
2023-10-25T06:57:14.889Z,8.15
2023-10-25T06:58:11.971Z,6.88
2023-10-25T06:59:09.315Z,6.82
2023-10-25T07:00:10.232Z,7.13
2023-10-25T07:01:08.404Z,6.60
2023-10-25T07:02:41.989Z,6.75
2023-10-25T07:03:45.584Z,6.97
2023-10-25T07:04:44.061Z,7.60
2023-10-25T07:05:43.480Z,7.10
2023-10-25T07:06:40.771Z,6.68
2023-10-25T07:07:39.279Z,7.30
2023-10-25T07:08:36.504Z,7.03
2023-10-25T07:09:33.557Z,8.35
2023-10-25T07:10:31.010Z,6.97
2023-10-25T07:11:27.767Z,7.68
2023-10-25T07:12:24.970Z,7.63
2023-10-25T07:13:21.713Z,7.63
2023-10-25T07:14:18.524Z,8.18
2023-10-25T07:15:15.727Z,7.28
2023-10-25T07:16:12.822Z,7.35
2023-10-25T07:17:09.760Z,7.90
2023-10-25T07:18:06.653Z,7.13
2023-10-25T07:19:04.191Z,7.75
2023-10-25T07:20:00.918Z,7.30
2023-10-25T07:20:59.423Z,7.80
2023-10-25T07:21:56.155Z,6.40
2023-10-25T07:22:52.882Z,6.88
2023-10-25T07:23:49.638Z,8.57
2023-10-25T07:24:46.403Z,8.18
2023-10-25T07:25:44.322Z,7.68
2023-10-25T07:26:42.347Z,6.88
2023-10-25T07:27:39.330Z,7.13
2023-10-25T07:28:36.101Z,6.72
2023-10-25T07:29:32.832Z,7.03
2023-10-25T07:30:29.617Z,7.50
2023-10-25T07:31:26.492Z,7.95
2023-10-25T07:32:23.277Z,7.72
2023-10-25T07:33:20.062Z,7.65
2023-10-25T07:34:16.842Z,7.28
2023-10-25T07:35:13.572Z,8.10
2023-10-25T07:36:10.525Z,7.60
2023-10-25T07:37:07.443Z,7.20
2023-10-25T07:38:04.198Z,8.75
2023-10-25T07:39:01.353Z,7.68
2023-10-25T07:39:58.093Z,7.10
2023-10-25T07:41:51.458Z,7.13
2023-10-25T07:42:48.188Z,7.65
2023-10-25T07:43:45.140Z,6.93
2023-10-25T07:44:42.022Z,7.82
2023-10-25T07:45:38.852Z,8.02
2023-10-25T07:46:35.731Z,7.22
2023-10-25T07:47:32.565Z,6.90
2023-10-25T07:48:29.237Z,8.52
2023-10-25T07:49:26.181Z,8.05
2023-10-25T07:50:22.854Z,8.55
2023-10-25T07:51:19.550Z,7.10
2023-10-25T07:52:17.791Z,7.57
2023-10-25T07:53:14.624Z,7.60
2023-10-25T07:54:11.310Z,7.60
2023-10-25T07:55:28.137Z,7.47
2023-10-25T07:57:07.778Z,7.90
2023-10-25T07:58:41.553Z,7.40
2023-10-25T07:59:38.999Z,9.45
2023-10-25T08:00:35.781Z,7.65
2023-10-25T08:01:32.548Z,8.85
2023-10-25T08:02:29.433Z,7.57
2023-10-25T08:03:27.750Z,7.95
2023-10-25T08:04:24.860Z,8.35
2023-10-25T08:05:21.653Z,8.05
2023-10-25T08:06:18.587Z,7.70
2023-10-25T08:07:15.383Z,7.97
2023-10-25T08:08:12.139Z,7.95
2023-10-25T08:09:08.875Z,8.25
2023-10-25T08:10:07.282Z,8.48
2023-10-25T08:11:06.004Z,7.63
2023-10-25T08:12:02.787Z,8.40
2023-10-25T08:12:59.471Z,8.57
2023-10-25T08:13:56.400Z,8.52
2023-10-25T08:14:53.188Z,7.15
2023-10-25T08:15:57.336Z,8.70
2023-10-25T08:16:54.044Z,8.02
2023-10-25T08:17:54.988Z,8.05
2023-10-25T08:18:51.739Z,8.68
2023-10-25T08:19:48.418Z,7.88
2023-10-25T08:20:45.152Z,7.85
2023-10-25T08:21:42.008Z,7.90
2023-10-25T08:22:38.730Z,7.50
2023-10-25T08:23:35.888Z,8.10
2023-10-25T08:24:33.034Z,8.10
2023-10-25T08:25:29.742Z,8.38
2023-10-25T08:26:27.729Z,8.23
2023-10-25T08:27:24.431Z,8.15
2023-10-25T08:28:21.274Z,7.18
2023-10-25T08:29:18.008Z,7.65
2023-10-25T08:30:15.758Z,9.30
2023-10-25T08:31:13.628Z,8.05
2023-10-25T08:32:10.323Z,7.40
2023-10-25T08:33:07.440Z,7.47
2023-10-25T08:34:04.545Z,7.63
2023-10-25T08:35:01.299Z,7.68
2023-10-25T08:36:02.942Z,7.40
2023-10-25T08:37:00.072Z,8.45
2023-10-25T08:37:56.832Z,8.38
2023-10-25T08:38:54.058Z,7.40
2023-10-25T08:39:50.816Z,7.85
2023-10-25T08:40:47.470Z,9.10
2023-10-25T08:41:48.069Z,8.23
2023-10-25T08:42:45.185Z,8.15
2023-10-25T08:43:41.939Z,7.82
2023-10-25T08:44:40.742Z,8.02
2023-10-25T08:45:37.625Z,7.60
2023-10-25T08:46:35.052Z,8.52
2023-10-25T08:47:31.776Z,8.02
2023-10-25T08:48:28.780Z,8.00
2023-10-25T08:49:25.647Z,7.93
2023-10-25T08:50:22.379Z,8.25
2023-10-25T08:51:19.659Z,7.68
2023-10-25T08:52:23.661Z,8.27
2023-10-25T08:53:25.627Z,7.53
2023-10-25T08:54:25.248Z,8.15
2023-10-25T08:55:22.071Z,8.07
2023-10-25T08:56:18.960Z,7.50
2023-10-25T08:57:18.554Z,8.80
2023-10-25T08:58:16.995Z,8.82
2023-10-25T08:59:13.678Z,8.65
2023-10-25T09:00:13.173Z,7.57
2023-10-25T09:01:09.864Z,8.45
2023-10-25T09:02:07.173Z,9.05
2023-10-25T09:03:04.821Z,8.07
2023-10-25T09:04:09.059Z,8.15
2023-10-25T09:05:10.022Z,7.90
2023-10-25T09:06:08.844Z,8.60
2023-10-25T09:07:33.623Z,8.45
2023-10-25T09:08:31.746Z,8.38
2023-10-25T09:09:40.555Z,7.97
2023-10-25T09:10:37.564Z,8.15
2023-10-25T09:11:45.262Z,8.88
2023-10-25T09:12:42.045Z,8.35
2023-10-25T09:13:44.614Z,7.82
2023-10-25T09:14:48.784Z,8.93
2023-10-25T09:15:46.398Z,8.60
2023-10-25T09:16:44.949Z,8.77
2023-10-25T09:17:41.733Z,8.45
2023-10-25T09:18:39.823Z,8.77
2023-10-25T09:19:36.687Z,8.35
2023-10-25T09:20:33.828Z,8.70
2023-10-25T09:21:30.943Z,8.68
2023-10-25T09:22:31.610Z,9.10
2023-10-25T09:23:29.593Z,8.32
2023-10-25T09:24:26.329Z,8.50
2023-10-25T09:25:31.007Z,8.15
2023-10-25T09:26:34.726Z,9.10
2023-10-25T09:27:33.881Z,9.15
2023-10-25T09:28:31.661Z,8.38
2023-10-25T09:29:32.901Z,9.15
2023-10-25T09:30:31.389Z,7.67
2023-10-25T09:31:31.985Z,8.73
2023-10-25T09:32:28.792Z,8.43
2023-10-25T09:33:28.491Z,9.10
2023-10-25T09:34:25.336Z,7.93
2023-10-25T09:35:22.234Z,8.27
2023-10-25T09:36:22.594Z,9.07
2023-10-25T09:37:19.640Z,8.63
2023-10-25T09:38:17.054Z,9.38
2023-10-25T09:39:13.667Z,9.38
2023-10-25T09:40:11.338Z,8.43
2023-10-25T09:41:14.998Z,8.98
2023-10-25T09:42:14.140Z,8.60
2023-10-25T09:43:21.679Z,9.52
2023-10-25T09:44:20.833Z,8.50
2023-10-25T09:45:25.043Z,8.98
2023-10-25T09:46:24.352Z,8.95
2023-10-25T09:47:26.282Z,9.30
2023-10-25T09:48:23.576Z,9.52
2023-10-25T09:49:23.877Z,9.32
2023-10-25T09:50:33.112Z,9.00
2023-10-25T09:51:54.996Z,8.93
2023-10-25T09:53:00.094Z,8.77
2023-10-25T09:54:10.168Z,9.02
2023-10-25T09:55:19.475Z,8.63
2023-10-25T09:56:17.504Z,9.30
2023-10-25T09:57:15.172Z,9.13
2023-10-25T09:58:14.108Z,8.95
2023-10-25T09:59:12.872Z,10.57
2023-10-25T10:00:10.790Z,9.57
2023-10-25T10:01:10.603Z,10.23
2023-10-25T10:02:09.804Z,9.73
2023-10-25T10:03:27.247Z,9.30
2023-10-25T10:04:58.820Z,9.98
2023-10-25T10:06:34.677Z,9.63
2023-10-25T10:07:56.094Z,9.93
2023-10-25T10:09:14.376Z,10.93
2023-10-25T10:10:28.515Z,10.70
2023-10-25T10:11:28.308Z,11.18
2023-10-25T10:12:25.081Z,10.27
2023-10-25T10:13:22.065Z,10.88
2023-10-25T10:14:38.829Z,9.75
2023-10-25T10:16:01.882Z,10.38
2023-10-25T10:17:16.446Z,10.13
2023-10-25T10:18:13.328Z,10.48
2023-10-25T10:19:12.396Z,11.05
2023-10-25T10:20:22.118Z,11.85
2023-10-25T10:21:18.847Z,10.35
2023-10-25T10:22:17.982Z,11.52
2023-10-25T10:23:17.741Z,9.80
2023-10-25T10:25:01.755Z,10.95
2023-10-25T10:25:58.563Z,10.63
2023-10-25T10:26:55.288Z,10.68
2023-10-25T10:28:02.406Z,10.98
2023-10-25T10:28:59.000Z,9.82
2023-10-25T10:29:56.568Z,11.55
2023-10-25T10:30:55.949Z,10.00
2023-10-25T10:31:59.857Z,10.25
2023-10-25T10:32:57.648Z,10.32
2023-10-25T10:33:54.371Z,10.70
2023-10-25T10:34:58.793Z,9.50
2023-10-25T10:36:01.381Z,10.98
2023-10-25T10:37:14.208Z,9.98
2023-10-25T10:38:10.862Z,10.40
2023-10-25T10:39:18.080Z,11.23
2023-10-25T10:40:15.381Z,10.77
2023-10-25T10:41:15.053Z,10.80
2023-10-25T10:42:20.805Z,10.20
2023-10-25T10:43:17.764Z,10.02
2023-10-25T10:44:14.488Z,11.05
2023-10-25T10:45:13.986Z,11.20
2023-10-25T10:46:12.387Z,11.05
2023-10-25T10:47:12.310Z,10.77
2023-10-25T10:48:25.830Z,11.65
2023-10-25T10:49:23.756Z,10.98
2023-10-25T10:50:23.367Z,12.02
2023-10-25T10:51:20.040Z,12.05
2023-10-25T10:52:16.913Z,12.27
2023-10-25T10:53:13.559Z,11.85
2023-10-25T10:54:10.280Z,11.27
2023-10-25T10:55:08.911Z,11.32
2023-10-25T10:56:05.699Z,11.98
2023-10-25T10:57:02.887Z,11.43
2023-10-25T10:58:08.458Z,10.55
2023-10-25T10:59:07.300Z,12.48
2023-10-25T11:00:11.302Z,12.98
2023-10-25T11:01:08.138Z,12.40
2023-10-25T11:02:05.436Z,11.55
2023-10-25T11:03:05.808Z,12.90
2023-10-25T11:04:05.166Z,12.10
2023-10-25T11:05:01.991Z,12.27
2023-10-25T11:06:00.104Z,13.10
2023-10-25T11:06:56.879Z,12.80
2023-10-25T11:07:55.070Z,10.55
2023-10-25T11:08:52.573Z,11.60
2023-10-25T11:09:49.267Z,12.35
2023-10-25T11:10:45.962Z,11.52
2023-10-25T11:11:42.627Z,11.70
2023-10-25T11:12:40.585Z,11.45
2023-10-25T11:13:37.447Z,10.40
2023-10-25T11:14:47.217Z,11.68
2023-10-25T11:15:43.899Z,34.83
2023-10-25T11:16:40.665Z,12.68
2023-10-25T11:17:38.008Z,11.75
2023-10-25T11:18:34.743Z,11.55
2023-10-25T11:19:34.699Z,12.70
2023-10-25T11:20:32.560Z,12.05
2023-10-25T11:21:33.567Z,12.40
2023-10-25T11:22:33.210Z,11.38
2023-10-25T11:23:30.198Z,11.43
2023-10-25T11:24:27.743Z,10.98
2023-10-25T11:25:28.814Z,10.93
2023-10-25T11:26:25.504Z,11.68
2023-10-25T11:27:22.403Z,11.25
2023-10-25T11:28:21.569Z,10.48
2023-10-25T11:29:18.205Z,11.40
2023-10-25T11:30:15.821Z,11.55
2023-10-25T11:31:12.555Z,11.05
2023-10-25T11:32:15.726Z,11.48
2023-10-25T11:33:12.826Z,11.50
2023-10-25T11:34:09.583Z,12.07
2023-10-25T11:35:08.565Z,11.57
2023-10-25T11:36:06.543Z,12.52
2023-10-25T11:37:04.072Z,11.52
2023-10-25T11:38:00.832Z,11.55
2023-10-25T11:39:11.631Z,11.60
2023-10-25T11:40:08.697Z,11.18
2023-10-25T11:41:05.404Z,10.80
2023-10-25T11:42:02.486Z,11.75
2023-10-25T11:43:00.819Z,10.88
2023-10-25T11:43:58.940Z,12.10
2023-10-25T11:44:58.182Z,10.80
2023-10-25T11:45:55.060Z,11.77
2023-10-25T11:46:56.637Z,11.85
2023-10-25T11:47:55.647Z,11.43
2023-10-25T11:48:52.542Z,12.40
2023-10-25T11:49:54.089Z,9.60
2023-10-25T11:50:50.852Z,11.18
2023-10-25T11:51:47.631Z,10.40
2023-10-25T11:52:44.301Z,11.98
2023-10-25T11:53:40.980Z,10.40
2023-10-25T11:54:37.696Z,10.63
2023-10-25T11:55:34.444Z,10.35
2023-10-25T11:56:32.014Z,10.38
2023-10-25T11:57:30.484Z,10.32
2023-10-25T11:58:30.417Z,10.80
2023-10-25T11:59:27.058Z,10.93
2023-10-25T12:00:23.685Z,10.15
2023-10-25T12:01:20.668Z,11.35
2023-10-25T12:02:20.328Z,12.32
2023-10-25T12:03:17.217Z,10.23
2023-10-25T12:04:14.603Z,10.73
2023-10-25T12:05:11.643Z,10.88
2023-10-25T12:06:08.458Z,10.38
2023-10-25T12:07:06.158Z,9.80
2023-10-25T12:08:02.833Z,10.45
2023-10-25T12:09:00.880Z,9.70
2023-10-25T12:09:57.917Z,10.35
2023-10-25T12:10:54.585Z,9.40
2023-10-25T12:11:51.273Z,9.52
2023-10-25T12:12:47.927Z,9.60
2023-10-25T12:13:44.667Z,9.95
2023-10-25T12:14:41.467Z,9.90
2023-10-25T12:15:38.255Z,10.07
2023-10-25T12:16:34.950Z,9.65
2023-10-25T12:17:31.691Z,9.90
2023-10-25T12:18:28.696Z,9.63
2023-10-25T12:19:25.935Z,9.13
2023-10-25T12:20:28.256Z,8.63
2023-10-25T12:21:25.500Z,10.18
2023-10-25T12:22:22.204Z,10.23
2023-10-25T12:23:18.855Z,9.77
2023-10-25T12:24:15.477Z,9.38
2023-10-25T12:25:12.158Z,8.90
2023-10-25T12:26:09.960Z,9.00
2023-10-25T12:27:08.309Z,9.23
2023-10-25T12:28:05.563Z,10.52
2023-10-25T12:29:04.521Z,8.65
2023-10-25T12:30:01.187Z,9.60
2023-10-25T12:30:59.189Z,10.13
2023-10-25T12:31:56.727Z,8.73
2023-10-25T12:32:55.372Z,8.88
2023-10-25T12:33:52.157Z,8.73
2023-10-25T12:34:49.436Z,9.07
2023-10-25T12:35:46.261Z,8.65
2023-10-25T12:36:42.912Z,8.68
2023-10-25T12:37:40.114Z,7.82
2023-10-25T12:38:36.767Z,8.35
2023-10-25T12:39:36.151Z,7.82
2023-10-25T12:40:33.043Z,9.20
2023-10-25T12:41:29.712Z,8.40
2023-10-25T12:42:26.397Z,8.30
2023-10-25T12:43:23.087Z,8.50
2023-10-25T12:44:19.747Z,8.50
2023-10-25T12:45:16.478Z,8.82
2023-10-25T12:46:13.116Z,9.50
2023-10-25T12:47:09.758Z,8.75
2023-10-25T12:48:06.745Z,8.82
2023-10-25T12:49:04.680Z,9.65
2023-10-25T12:50:01.337Z,9.10
2023-10-25T12:50:57.999Z,9.02
2023-10-25T12:51:54.703Z,9.52
2023-10-25T12:52:51.515Z,10.20
2023-10-25T12:53:48.112Z,9.13
2023-10-25T12:54:45.030Z,9.52
2023-10-25T12:55:41.942Z,9.35
2023-10-25T12:56:39.209Z,10.00
2023-10-25T12:57:36.334Z,9.80
2023-10-25T12:58:33.080Z,10.45